createdAt,value
2023-03-17T00:00:23.817Z,9.85
2023-03-17T00:02:50.754Z,9.82
2023-03-17T00:05:20.771Z,9.84
2023-03-17T00:07:47.801Z,9.85
2023-03-17T00:10:33.345Z,9.86
2023-03-17T00:12:59.817Z,9.82
2023-03-17T00:15:27.334Z,9.79
2023-03-17T00:17:55.892Z,9.81
2023-03-17T00:20:26.385Z,9.82
2023-03-17T00:22:55.301Z,9.77
2023-03-17T00:25:28.037Z,9.78
2023-03-17T00:27:55.512Z,9.75
2023-03-17T00:30:23.170Z,9.73
2023-03-17T00:32:53.653Z,9.77
2023-03-17T00:35:23.613Z,9.81
2023-03-17T00:37:52.484Z,9.73
2023-03-17T00:40:31.076Z,9.73
2023-03-17T00:43:00.042Z,9.73
2023-03-17T00:45:27.084Z,9.77
2023-03-17T00:47:57.348Z,9.80
2023-03-17T00:50:26.595Z,9.77
2023-03-17T00:52:54.984Z,9.77
2023-03-17T00:55:22.693Z,9.80
2023-03-17T00:57:50.256Z,9.76
2023-03-17T01:00:24.566Z,9.73
2023-03-17T01:02:53.297Z,9.74
2023-03-17T01:05:21.749Z,9.71
2023-03-17T01:07:52.983Z,9.70
2023-03-17T01:10:26.122Z,9.72
2023-03-17T01:12:54.242Z,9.67
2023-03-17T01:15:22.416Z,9.71
2023-03-17T01:17:50.542Z,9.70
2023-03-17T01:20:22.827Z,9.69
2023-03-17T01:22:50.580Z,9.69
2023-03-17T01:25:18.415Z,9.64
2023-03-17T01:27:46.491Z,9.64
2023-03-17T01:30:28.871Z,9.65
2023-03-17T01:32:57.170Z,9.64
2023-03-17T01:35:25.059Z,9.66
2023-03-17T01:37:52.098Z,9.69
2023-03-17T01:40:28.584Z,9.65
2023-03-17T01:43:03.270Z,9.61
2023-03-17T01:46:06.804Z,9.60
2023-03-17T01:48:53.829Z,9.56
2023-03-17T01:51:45.230Z,9.57
2023-03-17T01:54:22.143Z,9.55
2023-03-17T01:56:51.972Z,9.55
2023-03-17T01:59:23.748Z,9.46
2023-03-17T02:01:54.544Z,9.48
2023-03-17T02:04:21.795Z,9.40
2023-03-17T02:06:58.061Z,9.45
2023-03-17T02:09:26.369Z,9.46
2023-03-17T02:11:53.137Z,9.47
2023-03-17T02:14:20.456Z,9.45
2023-03-17T02:16:46.982Z,9.46
2023-03-17T02:19:13.521Z,9.44
2023-03-17T02:21:43.052Z,9.44
2023-03-17T02:24:26.584Z,9.44
2023-03-17T02:26:55.072Z,9.44
2023-03-17T02:29:24.497Z,9.45
2023-03-17T02:31:51.530Z,9.45
2023-03-17T02:34:18.036Z,9.45
2023-03-17T02:36:44.630Z,9.41
2023-03-17T02:39:11.212Z,9.36
2023-03-17T02:41:37.996Z,9.43
2023-03-17T02:44:04.485Z,9.40
2023-03-17T02:46:31.159Z,9.42
2023-03-17T02:48:58.049Z,9.45
2023-03-17T02:51:24.421Z,9.44
2023-03-17T02:53:50.973Z,9.43
2023-03-17T02:56:17.377Z,9.40
2023-03-17T02:58:43.853Z,9.37
2023-03-17T03:01:10.649Z,9.41
2023-03-17T03:03:37.170Z,9.41
2023-03-17T03:06:03.686Z,9.39
2023-03-17T03:08:30.849Z,9.29
2023-03-17T03:10:57.381Z,9.31
2023-03-17T03:13:23.816Z,9.29
2023-03-17T03:15:50.279Z,9.28
2023-03-17T03:18:16.933Z,9.30
2023-03-17T03:20:44.463Z,9.22
2023-03-17T03:23:11.363Z,9.20
2023-03-17T03:25:38.639Z,9.18
2023-03-17T03:28:10.020Z,9.22
2023-03-17T03:30:36.853Z,9.22
2023-03-17T03:33:04.359Z,9.25
2023-03-17T03:35:30.782Z,9.21
2023-03-17T03:37:57.547Z,9.12
2023-03-17T03:40:25.171Z,9.15
2023-03-17T03:42:51.825Z,9.09
2023-03-17T03:45:18.775Z,9.10
2023-03-17T03:47:45.453Z,9.11
2023-03-17T03:50:13.095Z,9.06
2023-03-17T03:52:39.457Z,9.06
2023-03-17T03:55:06.693Z,9.03
2023-03-17T03:57:33.059Z,9.01
2023-03-17T03:59:59.428Z,8.95
2023-03-17T04:02:25.952Z,8.92
2023-03-17T04:04:52.802Z,8.95
2023-03-17T04:07:21.165Z,8.92
2023-03-17T04:09:49.289Z,8.85
2023-03-17T04:12:16.979Z,8.88
2023-03-17T04:14:44.602Z,8.88
2023-03-17T04:17:12.053Z,8.86
2023-03-17T04:19:39.323Z,8.85
2023-03-17T04:22:07.435Z,8.85
2023-03-17T04:24:34.845Z,8.91
2023-03-17T04:27:03.703Z,8.92
2023-03-17T04:29:32.080Z,8.89
2023-03-17T04:31:58.561Z,8.88
2023-03-17T04:34:24.995Z,8.90
2023-03-17T04:36:51.542Z,8.88
2023-03-17T04:39:18.302Z,8.82
2023-03-17T04:41:45.248Z,8.89
2023-03-17T04:44:12.170Z,8.93
2023-03-17T04:46:38.586Z,8.87
2023-03-17T04:49:05.030Z,8.88
2023-03-17T04:51:31.722Z,8.86
2023-03-17T04:53:58.116Z,8.85
2023-03-17T04:56:24.587Z,8.79
2023-03-17T04:58:50.977Z,8.84
2023-03-17T05:01:17.882Z,8.86
2023-03-17T05:03:45.364Z,8.85
2023-03-17T05:06:11.950Z,8.84
2023-03-17T05:08:38.717Z,8.85
2023-03-17T05:11:05.470Z,8.83
2023-03-17T05:13:31.837Z,8.85
2023-03-17T05:15:59.450Z,8.87
2023-03-17T05:18:25.935Z,8.86
2023-03-17T05:20:52.674Z,8.83
2023-03-17T05:23:19.157Z,8.80
2023-03-17T05:25:45.732Z,8.75
2023-03-17T05:28:13.258Z,8.75
2023-03-17T05:30:42.665Z,8.78
2023-03-17T05:33:10.092Z,8.74
2023-03-17T05:35:36.734Z,8.70
2023-03-17T05:38:03.227Z,8.67
2023-03-17T05:40:30.339Z,8.72
2023-03-17T05:42:56.857Z,8.73
2023-03-17T05:45:23.488Z,8.73
2023-03-17T05:47:49.910Z,8.74
2023-03-17T05:50:16.511Z,8.72
2023-03-17T05:52:43.327Z,8.74
2023-03-17T05:55:10.152Z,8.76
2023-03-17T05:57:36.512Z,8.83
2023-03-17T06:00:05.781Z,8.84
2023-03-17T06:02:32.587Z,8.81
2023-03-17T06:04:59.079Z,8.78
2023-03-17T06:07:25.448Z,8.81
2023-03-17T06:09:51.838Z,8.88
2023-03-17T06:12:18.208Z,8.89
2023-03-17T06:14:44.690Z,8.94
2023-03-17T06:17:12.905Z,8.95
2023-03-17T06:19:39.403Z,9.01
2023-03-17T06:22:05.778Z,9.08
2023-03-17T06:24:32.142Z,9.06
2023-03-17T06:26:58.828Z,9.10
2023-03-17T06:29:25.512Z,9.14
2023-03-17T06:31:52.299Z,9.18
2023-03-17T06:34:20.683Z,9.21
2023-03-17T06:36:47.413Z,9.31
2023-03-17T06:39:15.560Z,9.44
2023-03-17T06:41:42.317Z,9.98
2023-03-17T06:44:09.938Z,10.25
2023-03-17T06:46:36.803Z,10.31
2023-03-17T06:49:03.870Z,10.45
2023-03-17T06:51:32.367Z,10.26
2023-03-17T06:53:58.924Z,10.23
2023-03-17T06:56:30.162Z,10.17
2023-03-17T06:58:57.569Z,10.15
2023-03-17T07:01:24.478Z,10.12
2023-03-17T07:03:50.925Z,10.09
2023-03-17T07:06:17.267Z,10.08
2023-03-17T07:08:43.686Z,10.12
2023-03-17T07:11:10.062Z,10.14
2023-03-17T07:13:38.767Z,10.21
2023-03-17T07:16:05.545Z,10.26
2023-03-17T07:18:32.102Z,10.29
2023-03-17T07:20:58.830Z,10.44
2023-03-17T07:23:26.104Z,10.48
2023-03-17T07:25:52.610Z,10.66
2023-03-17T07:28:19.254Z,10.69
2023-03-17T07:30:47.029Z,10.72
2023-03-17T07:33:14.047Z,10.83
2023-03-17T07:35:40.996Z,10.91
2023-03-17T07:38:07.374Z,11.05
2023-03-17T07:40:35.408Z,11.11
2023-03-17T07:43:02.741Z,11.10
2023-03-17T07:45:29.509Z,11.22
2023-03-17T07:47:56.043Z,11.39
2023-03-17T07:50:23.145Z,11.52
2023-03-17T07:52:49.538Z,11.64
2023-03-17T07:55:16.589Z,11.73
2023-03-17T07:57:43.390Z,11.68
2023-03-17T08:00:10.786Z,11.65
2023-03-17T08:02:37.762Z,11.67
2023-03-17T08:05:05.747Z,11.66
2023-03-17T08:07:32.120Z,11.78
2023-03-17T08:09:58.771Z,11.84
2023-03-17T08:12:25.611Z,11.82
2023-03-17T08:14:52.607Z,11.82
2023-03-17T08:17:19.320Z,11.85
2023-03-17T08:19:45.772Z,11.90
2023-03-17T08:22:12.499Z,12.04
2023-03-17T08:24:41.159Z,12.12
2023-03-17T08:27:08.670Z,12.27
2023-03-17T08:29:35.930Z,12.40
2023-03-17T08:32:03.504Z,12.45
2023-03-17T08:34:29.947Z,12.53
2023-03-17T08:36:56.609Z,12.64
2023-03-17T08:39:23.228Z,12.82
2023-03-17T08:41:49.674Z,12.85
2023-03-17T08:44:16.584Z,13.02
2023-03-17T08:46:43.109Z,13.10
2023-03-17T08:49:10.746Z,13.26
2023-03-17T08:51:37.616Z,13.31
2023-03-17T08:54:06.765Z,13.50
2023-03-17T08:56:34.022Z,13.62
2023-03-17T08:59:00.857Z,13.69
2023-03-17T09:01:27.522Z,13.71
2023-03-17T09:03:55.159Z,13.66
2023-03-17T09:06:22.353Z,13.78
2023-03-17T09:08:54.997Z,13.82
2023-03-17T09:11:24.522Z,13.88
2023-03-17T09:13:51.742Z,13.85
2023-03-17T09:16:19.290Z,13.96
2023-03-17T09:18:46.733Z,14.01
2023-03-17T09:21:14.916Z,14.02
2023-03-17T09:23:41.823Z,14.03
2023-03-17T09:26:09.070Z,14.04
2023-03-17T09:28:36.059Z,14.04
2023-03-17T09:31:05.707Z,14.17
2023-03-17T09:33:32.673Z,14.18
2023-03-17T09:35:59.113Z,14.19
2023-03-17T09:38:27.444Z,14.30
2023-03-17T09:41:07.870Z,14.41
2023-03-17T09:43:47.688Z,14.52
2023-03-17T09:46:36.343Z,14.57
2023-03-17T09:49:16.165Z,14.66
2023-03-17T09:51:45.145Z,14.71
2023-03-17T09:54:18.735Z,14.81
2023-03-17T09:56:51.675Z,14.84
2023-03-17T09:59:30.137Z,14.94
2023-03-17T10:01:57.722Z,14.94
2023-03-17T10:04:24.723Z,14.98
2023-03-17T10:06:55.538Z,15.02
2023-03-17T10:09:35.695Z,15.13
2023-03-17T10:12:10.780Z,15.22
2023-03-17T10:14:38.374Z,15.27
2023-03-17T10:17:17.448Z,15.39
2023-03-17T10:20:05.896Z,15.52
2023-03-17T10:22:39.681Z,15.65
2023-03-17T10:25:14.747Z,15.58
2023-03-17T10:27:44.895Z,15.71
2023-03-17T10:30:20.718Z,15.74
2023-03-17T10:32:48.720Z,15.87
2023-03-17T10:35:17.027Z,15.89
2023-03-17T10:37:47.184Z,15.95
2023-03-17T10:40:27.877Z,15.91
2023-03-17T10:43:01.869Z,15.83
2023-03-17T10:45:32.476Z,15.94
2023-03-17T10:48:01.412Z,15.99
2023-03-17T10:50:39.719Z,16.04
2023-03-17T10:53:19.236Z,16.23
2023-03-17T10:55:52.822Z,16.01
2023-03-17T10:58:30.459Z,16.02
2023-03-17T11:01:08.416Z,15.94
2023-03-17T11:03:40.972Z,15.92
2023-03-17T11:06:17.316Z,15.88
2023-03-17T11:08:53.822Z,15.84
2023-03-17T11:11:27.787Z,15.95
2023-03-17T11:14:13.330Z,15.93
2023-03-17T11:16:53.436Z,16.08
2023-03-17T11:19:27.258Z,16.09
2023-03-17T11:22:09.972Z,16.14
2023-03-17T11:24:49.356Z,16.12
2023-03-17T11:27:30.475Z,16.23
2023-03-17T11:30:14.837Z,16.23
2023-03-17T11:33:06.216Z,16.31
2023-03-17T11:35:36.263Z,16.29
2023-03-17T11:38:22.654Z,16.30
2023-03-17T11:41:04.841Z,16.36
2023-03-17T11:43:59.501Z,16.19
2023-03-17T11:46:34.389Z,16.32
2023-03-17T11:49:11.636Z,16.40
2023-03-17T11:52:03.848Z,16.46
2023-03-17T11:54:59.004Z,16.65
2023-03-17T11:57:47.006Z,16.81
2023-03-17T12:00:21.009Z,17.07
2023-03-17T12:03:19.567Z,17.14
2023-03-17T12:05:50.460Z,17.28
2023-03-17T12:08:20.718Z,17.34
2023-03-17T12:10:57.355Z,17.34
2023-03-17T12:13:29.715Z,17.28
2023-03-17T12:16:04.452Z,17.40
2023-03-17T12:18:49.398Z,17.50
2023-03-17T12:21:38.326Z,17.67
2023-03-17T12:24:13.647Z,17.70
2023-03-17T12:27:08.913Z,17.57
2023-03-17T12:29:51.542Z,17.45
2023-03-17T12:32:26.398Z,17.36
2023-03-17T12:34:57.851Z,17.39
2023-03-17T12:37:27.789Z,17.35
2023-03-17T12:40:07.518Z,17.37
2023-03-17T12:42:40.252Z,17.44
2023-03-17T12:45:45.952Z,17.59
2023-03-17T12:48:42.831Z,17.64
2023-03-17T12:51:29.602Z,17.73
2023-03-17T12:53:56.837Z,17.68
2023-03-17T12:56:29.755Z,17.81
2023-03-17T12:59:03.450Z,17.94
2023-03-17T13:01:40.285Z,17.90
2023-03-17T13:04:12.610Z,17.92
2023-03-17T13:06:43.592Z,17.79
2023-03-17T13:09:33.249Z,17.94
2023-03-17T13:12:01.184Z,18.14
2023-03-17T13:14:41.058Z,18.13
2023-03-17T13:17:19.859Z,18.10
2023-03-17T13:20:07.975Z,18.37
2023-03-17T13:22:37.264Z,18.50
2023-03-17T13:25:33.414Z,18.38
2023-03-17T13:28:22.206Z,18.32
2023-03-17T13:30:55.262Z,18.42
2023-03-17T13:33:27.611Z,18.55
2023-03-17T13:36:12.754Z,18.57
2023-03-17T13:39:04.997Z,18.72
2023-03-17T13:41:51.780Z,18.87
2023-03-17T13:44:44.129Z,18.88
2023-03-17T13:47:35.611Z,18.70
2023-03-17T13:50:40.099Z,18.88
2023-03-17T13:53:10.433Z,18.89
2023-03-17T13:56:04.945Z,18.71
2023-03-17T13:58:33.242Z,18.86
2023-03-17T14:01:06.552Z,18.87
2023-03-17T14:03:40.547Z,18.98
2023-03-17T14:06:11.833Z,19.00
2023-03-17T14:08:47.628Z,19.04
2023-03-17T14:11:35.471Z,18.98
2023-03-17T14:14:26.080Z,18.78
2023-03-17T14:17:05.160Z,18.85
2023-03-17T14:19:33.353Z,19.07
2023-03-17T14:22:17.609Z,19.00
2023-03-17T14:24:43.962Z,19.14
2023-03-17T14:27:15.047Z,19.17
2023-03-17T14:29:41.413Z,19.20
2023-03-17T14:32:14.531Z,19.21
2023-03-17T14:34:54.318Z,18.91
2023-03-17T14:37:22.238Z,18.62
2023-03-17T14:39:52.614Z,18.65
2023-03-17T14:42:26.307Z,18.49
2023-03-17T14:45:19.228Z,18.41
2023-03-17T14:47:45.918Z,18.32
2023-03-17T14:50:25.488Z,18.27
2023-03-17T14:52:52.257Z,18.17
2023-03-17T14:55:19.951Z,18.04
2023-03-17T14:57:52.066Z,17.90
2023-03-17T15:00:36.455Z,17.75
2023-03-17T15:03:05.361Z,17.63
2023-03-17T15:05:41.263Z,17.66
2023-03-17T15:08:36.460Z,17.72
2023-03-17T15:11:04.892Z,17.70
2023-03-17T15:13:34.708Z,17.58
2023-03-17T15:16:17.919Z,17.70
2023-03-17T15:18:44.933Z,17.54
2023-03-17T15:21:29.100Z,17.32
2023-03-17T15:23:55.652Z,17.25
2023-03-17T15:26:30.207Z,17.15
2023-03-17T15:28:58.381Z,17.06
2023-03-17T15:31:29.228Z,17.07
2023-03-17T15:33:57.245Z,16.92
2023-03-17T15:36:32.201Z,16.90
2023-03-17T15:39:00.452Z,16.88
2023-03-17T15:41:26.842Z,16.77
2023-03-17T15:43:53.598Z,16.79
2023-03-17T15:46:31.959Z,16.75
2023-03-17T15:48:58.371Z,16.66
2023-03-17T15:51:25.134Z,16.63
2023-03-17T15:53:51.549Z,16.61
2023-03-17T15:56:20.930Z,16.53
2023-03-17T15:58:49.189Z,16.46
2023-03-17T16:01:16.622Z,16.45
2023-03-17T16:03:45.514Z,16.46
2023-03-17T16:06:18.326Z,16.37
2023-03-17T16:08:45.272Z,16.44
2023-03-17T16:11:20.354Z,16.41
2023-03-17T16:13:47.418Z,16.34
2023-03-17T16:16:21.423Z,16.35
2023-03-17T16:18:50.267Z,16.36
2023-03-17T16:21:16.941Z,16.37
2023-03-17T16:23:43.688Z,16.43
2023-03-17T16:26:15.923Z,16.42
2023-03-17T16:28:45.317Z,16.38
2023-03-17T16:31:29.225Z,16.24
2023-03-17T16:33:56.252Z,16.17
2023-03-17T16:36:24.558Z,16.15
2023-03-17T16:38:51.397Z,16.06
2023-03-17T16:41:23.816Z,16.08
2023-03-17T16:43:55.027Z,16.08
2023-03-17T16:46:22.538Z,16.01
2023-03-17T16:48:50.540Z,16.02
2023-03-17T16:51:17.257Z,15.95
2023-03-17T16:53:44.243Z,15.92
2023-03-17T16:56:17.151Z,15.89
2023-03-17T16:58:44.444Z,15.89
2023-03-17T17:01:19.948Z,15.87
2023-03-17T17:03:47.036Z,15.87
2023-03-17T17:06:16.838Z,15.81
2023-03-17T17:08:45.389Z,15.75
2023-03-17T17:11:13.526Z,15.64
2023-03-17T17:13:45.558Z,15.61
2023-03-17T17:16:22.802Z,15.58
2023-03-17T17:18:49.443Z,15.57
2023-03-17T17:21:16.020Z,15.52
2023-03-17T17:23:42.510Z,15.58
2023-03-17T17:26:08.909Z,15.43
2023-03-17T17:28:35.538Z,15.41
2023-03-17T17:31:02.319Z,15.44
2023-03-17T17:33:28.773Z,15.32
2023-03-17T17:35:55.255Z,15.19
2023-03-17T17:38:27.683Z,15.07
2023-03-17T17:40:59.199Z,14.95
2023-03-17T17:43:26.030Z,14.99
2023-03-17T17:45:52.740Z,15.03
2023-03-17T17:48:25.284Z,15.00
2023-03-17T17:50:53.750Z,15.02
2023-03-17T17:53:20.241Z,14.99
2023-03-17T17:55:48.377Z,14.98
2023-03-17T17:58:17.455Z,14.71
2023-03-17T18:00:43.963Z,14.69
2023-03-17T18:03:10.630Z,14.64
2023-03-17T18:05:37.323Z,14.61
2023-03-17T18:08:04.201Z,14.64
2023-03-17T18:10:31.451Z,14.63
2023-03-17T18:12:58.161Z,14.61
2023-03-17T18:15:26.387Z,14.59
2023-03-17T18:17:53.534Z,14.57
2023-03-17T18:20:21.802Z,14.60
2023-03-17T18:22:49.565Z,14.62
2023-03-17T18:25:16.794Z,14.61
2023-03-17T18:27:43.994Z,14.60
2023-03-17T18:30:14.127Z,14.56
2023-03-17T18:32:42.664Z,14.61
2023-03-17T18:35:13.821Z,14.47
2023-03-17T18:37:40.397Z,14.36
2023-03-17T18:40:15.233Z,14.24
2023-03-17T18:42:43.573Z,14.28
2023-03-17T18:45:11.558Z,14.36
2023-03-17T18:47:39.097Z,14.28
2023-03-17T18:50:07.908Z,14.25
2023-03-17T18:52:36.169Z,14.26
2023-03-17T18:55:02.729Z,14.27
2023-03-17T18:57:29.119Z,14.25
2023-03-17T18:59:55.874Z,14.25
2023-03-17T19:02:22.704Z,14.34
2023-03-17T19:04:49.169Z,14.40
2023-03-17T19:07:16.419Z,14.43
2023-03-17T19:09:42.916Z,14.38
2023-03-17T19:12:09.752Z,14.35
2023-03-17T19:14:38.694Z,14.35
2023-03-17T19:17:06.220Z,14.44
2023-03-17T19:19:33.309Z,14.38
2023-03-17T19:22:00.304Z,14.34
2023-03-17T19:24:27.316Z,14.32
2023-03-17T19:26:53.739Z,14.27
2023-03-17T19:29:20.342Z,14.25
2023-03-17T19:31:48.479Z,14.14
2023-03-17T19:34:15.341Z,14.07
2023-03-17T19:36:43.138Z,14.16
2023-03-17T19:39:10.805Z,14.19
2023-03-17T19:41:37.554Z,14.15
2023-03-17T19:44:07.763Z,14.11
2023-03-17T19:46:36.005Z,14.06
2023-03-17T19:49:03.002Z,14.00
2023-03-17T19:51:31.743Z,13.89
2023-03-17T19:53:58.174Z,13.91
2023-03-17T19:56:24.652Z,13.84
2023-03-17T19:58:51.468Z,13.84
2023-03-17T20:01:18.019Z,13.83
2023-03-17T20:03:44.676Z,13.80
2023-03-17T20:06:13.064Z,13.79
2023-03-17T20:08:40.892Z,13.84
2023-03-17T20:11:07.405Z,13.82
2023-03-17T20:13:35.300Z,13.85
2023-03-17T20:16:02.344Z,13.86
2023-03-17T20:18:29.807Z,13.80
2023-03-17T20:20:57.575Z,13.80
2023-03-17T20:23:24.819Z,13.84
2023-03-17T20:25:52.505Z,13.83
2023-03-17T20:28:21.313Z,13.76
2023-03-17T20:30:49.326Z,13.82
2023-03-17T20:33:16.893Z,13.87
2023-03-17T20:35:46.837Z,13.79
2023-03-17T20:38:14.630Z,13.76
2023-03-17T20:40:41.950Z,13.70
2023-03-17T20:43:09.358Z,13.61
2023-03-17T20:45:35.943Z,13.62
2023-03-17T20:48:03.367Z,13.57
2023-03-17T20:50:30.980Z,13.47
2023-03-17T20:52:57.502Z,13.50
2023-03-17T20:55:25.222Z,13.42
2023-03-17T20:57:52.630Z,13.27
2023-03-17T21:00:21.109Z,13.03
2023-03-17T21:02:50.049Z,12.92
2023-03-17T21:05:23.111Z,12.93
2023-03-17T21:07:50.074Z,12.90
2023-03-17T21:10:17.917Z,12.88
2023-03-17T21:12:45.165Z,12.81
2023-03-17T21:15:12.852Z,12.79
2023-03-17T21:17:39.771Z,12.72
2023-03-17T21:20:07.538Z,12.66
2023-03-17T21:22:36.841Z,12.47
2023-03-17T21:25:08.580Z,12.49
2023-03-17T21:27:39.330Z,12.44
2023-03-17T21:30:08.831Z,12.43
2023-03-17T21:32:36.021Z,12.36
2023-03-17T21:35:02.975Z,12.33
2023-03-17T21:37:29.570Z,12.30
2023-03-17T21:39:56.878Z,12.24
2023-03-17T21:42:24.643Z,12.16
2023-03-17T21:44:55.140Z,12.15
2023-03-17T21:47:21.557Z,12.13
2023-03-17T21:49:48.003Z,12.07
2023-03-17T21:52:15.051Z,12.05
2023-03-17T21:54:41.819Z,12.00
2023-03-17T21:57:08.417Z,11.87
2023-03-17T21:59:35.738Z,11.81
2023-03-17T22:02:02.878Z,11.83
2023-03-17T22:04:29.821Z,11.79
2023-03-17T22:06:56.543Z,11.77
2023-03-17T22:09:23.082Z,11.68
2023-03-17T22:11:49.776Z,11.76
2023-03-17T22:14:19.932Z,11.69
2023-03-17T22:16:47.753Z,11.68
2023-03-17T22:19:14.701Z,11.70
2023-03-17T22:21:41.593Z,11.65
2023-03-17T22:24:08.392Z,11.64
2023-03-17T22:26:35.241Z,11.59
2023-03-17T22:29:01.606Z,11.60
2023-03-17T22:31:29.168Z,11.58
2023-03-17T22:33:57.977Z,11.52
2023-03-17T22:36:25.648Z,11.57
2023-03-17T22:38:52.769Z,11.61
2023-03-17T22:41:23.779Z,11.62
2023-03-17T22:43:51.147Z,11.49
2023-03-17T22:46:18.561Z,11.52
2023-03-17T22:48:46.293Z,11.52
2023-03-17T22:51:16.870Z,11.51
2023-03-17T22:53:43.993Z,11.56
2023-03-17T22:56:12.218Z,11.57
2023-03-17T22:58:39.620Z,11.54
2023-03-17T23:01:06.549Z,11.55
2023-03-17T23:03:34.031Z,11.62
2023-03-17T23:06:02.578Z,11.54
2023-03-17T23:08:31.445Z,11.57
2023-03-17T23:11:00.558Z,11.64
2023-03-17T23:13:27.653Z,11.62
2023-03-17T23:15:54.378Z,11.61
2023-03-17T23:18:20.745Z,11.55
2023-03-17T23:20:47.627Z,11.60
2023-03-17T23:23:14.449Z,11.61
2023-03-17T23:25:41.132Z,11.58
2023-03-17T23:28:08.385Z,11.59
2023-03-17T23:30:35.791Z,11.60
2023-03-17T23:33:04.567Z,11.61
2023-03-17T23:35:31.266Z,11.59
2023-03-17T23:37:57.683Z,11.66
2023-03-17T23:40:24.095Z,11.76
2023-03-17T23:42:50.523Z,11.71
2023-03-17T23:45:18.128Z,11.69
2023-03-17T23:47:45.885Z,11.67
2023-03-17T23:50:13.333Z,11.68
2023-03-17T23:52:41.036Z,11.69
2023-03-17T23:55:08.268Z,11.69
2023-03-17T23:57:37.893Z,11.73
